createdAt,value
2019-01-08T00:00:17.467Z,1002.66
2019-01-08T00:01:17.471Z,1002.49
2019-01-08T00:02:17.445Z,1002.52
2019-01-08T00:03:17.436Z,1002.55
2019-01-08T00:04:17.422Z,1002.47
2019-01-08T00:05:17.411Z,1002.45
2019-01-08T00:06:17.413Z,1002.45
2019-01-08T00:07:17.688Z,1002.39
2019-01-08T00:08:17.380Z,1002.41
2019-01-08T00:09:17.368Z,1002.33
2019-01-08T00:10:17.355Z,1002.34
2019-01-08T00:11:17.346Z,1002.36
2019-01-08T00:12:17.335Z,1002.36
2019-01-08T00:13:17.335Z,1002.31
2019-01-08T00:14:17.311Z,1002.31
2019-01-08T00:15:17.299Z,1002.28
2019-01-08T00:16:17.293Z,1002.25
2019-01-08T00:17:17.281Z,1002.20
2019-01-08T00:18:17.284Z,1002.20
2019-01-08T00:19:17.257Z,1002.19
2019-01-08T00:20:17.247Z,1002.19
2019-01-08T00:21:17.236Z,1002.20
2019-01-08T00:22:17.226Z,1002.22
2019-01-08T00:23:17.226Z,1002.28
2019-01-08T00:24:17.241Z,1002.25
2019-01-08T00:25:17.189Z,1002.29
2019-01-08T00:26:17.179Z,1002.31
2019-01-08T00:27:17.171Z,1002.24
2019-01-08T00:28:17.166Z,1002.27
2019-01-08T00:29:17.148Z,1002.25
2019-01-08T00:30:17.153Z,1002.28
2019-01-08T00:31:17.126Z,1002.28
2019-01-08T00:32:17.116Z,1002.24
2019-01-08T00:33:17.105Z,1002.19
2019-01-08T00:34:17.091Z,1002.24
2019-01-08T00:35:17.080Z,1002.21
2019-01-08T00:36:17.084Z,1002.19
2019-01-08T00:37:17.061Z,1002.21
2019-01-08T00:38:17.063Z,1002.21
2019-01-08T00:39:17.041Z,1002.20
2019-01-08T00:40:17.067Z,1002.20
2019-01-08T00:41:17.016Z,1002.16
2019-01-08T00:42:17.007Z,1002.24
2019-01-08T00:43:16.996Z,1002.25
2019-01-08T00:44:16.984Z,1002.17
2019-01-08T00:45:16.972Z,1002.22
2019-01-08T00:46:16.974Z,1002.20
2019-01-08T00:47:16.966Z,1002.14
2019-01-08T00:48:16.937Z,1002.14
2019-01-08T00:49:16.927Z,1002.14
2019-01-08T00:50:16.919Z,1002.15
2019-01-08T00:51:16.919Z,1002.08
2019-01-08T00:52:16.923Z,1002.10
2019-01-08T00:53:16.886Z,1002.14
2019-01-08T00:54:16.875Z,1002.13
2019-01-08T00:55:16.866Z,1002.03
2019-01-08T00:56:16.853Z,1002.06
2019-01-08T00:57:16.846Z,1002.00
2019-01-08T00:58:16.864Z,1002.01
2019-01-08T00:59:16.817Z,1002.09
2019-01-08T01:00:16.807Z,1002.03
2019-01-08T01:01:16.796Z,1002.10
2019-01-08T01:02:16.786Z,1002.11
2019-01-08T01:03:16.785Z,1002.01
2019-01-08T01:04:16.778Z,1002.00
2019-01-08T01:05:16.754Z,1002.04
2019-01-08T01:06:16.742Z,1002.05
2019-01-08T01:07:16.737Z,1002.00
2019-01-08T01:08:16.738Z,1002.03
2019-01-08T01:09:16.711Z,1002.02
2019-01-08T01:10:16.701Z,1002.01
2019-01-08T01:11:16.689Z,1002.11
2019-01-08T01:12:16.679Z,1001.99
2019-01-08T01:13:16.704Z,1002.04
2019-01-08T01:14:16.655Z,1002.03
2019-01-08T01:15:16.646Z,1002.04
2019-01-08T01:16:16.637Z,1002.03
2019-01-08T01:17:16.625Z,1001.99
2019-01-08T01:18:16.613Z,1002.00
2019-01-08T01:19:16.617Z,1001.98
2019-01-08T01:20:16.593Z,1002.02
2019-01-08T01:21:16.581Z,1001.92
2019-01-08T01:22:16.568Z,1001.94
2019-01-08T01:23:16.559Z,1001.95
2019-01-08T01:24:16.575Z,1001.89
2019-01-08T01:25:16.539Z,1001.91
2019-01-08T01:26:16.528Z,1001.90
2019-01-08T01:27:16.514Z,1001.84
2019-01-08T01:28:16.503Z,1001.82
2019-01-08T01:29:16.493Z,1001.86
2019-01-08T01:30:16.499Z,1001.83
2019-01-08T01:31:16.551Z,1001.78
2019-01-08T01:32:16.480Z,1001.81
2019-01-08T01:33:16.449Z,1001.75
2019-01-08T01:34:16.441Z,1001.76
2019-01-08T01:35:16.426Z,1001.78
2019-01-08T01:36:16.418Z,1001.73
2019-01-08T01:37:16.410Z,1001.73
2019-01-08T01:38:16.408Z,1001.68
2019-01-08T01:39:16.382Z,1001.75
2019-01-08T01:40:16.375Z,1001.72
2019-01-08T01:41:16.361Z,1001.70
2019-01-08T01:42:16.350Z,1001.79
2019-01-08T01:43:16.354Z,1001.73
2019-01-08T01:44:16.332Z,1001.65
2019-01-08T01:45:16.320Z,1001.68
2019-01-08T01:46:16.310Z,1001.78
2019-01-08T01:47:16.320Z,1001.70
2019-01-08T01:48:16.287Z,1001.67
2019-01-08T01:49:16.276Z,1001.60
2019-01-08T01:50:16.267Z,1001.70
2019-01-08T01:51:16.257Z,1001.67
2019-01-08T01:52:16.244Z,1001.63
2019-01-08T01:53:16.249Z,1001.63
2019-01-08T01:54:16.226Z,1001.67
2019-01-08T01:55:16.213Z,1001.70
2019-01-08T01:56:16.202Z,1001.64
2019-01-08T01:57:16.191Z,1001.61
2019-01-08T01:58:16.197Z,1001.62
2019-01-08T01:59:16.187Z,1001.55
2019-01-08T02:00:16.158Z,1001.64
2019-01-08T02:01:16.150Z,1001.53
2019-01-08T02:02:16.140Z,1001.61
2019-01-08T02:03:16.142Z,1001.54
2019-01-08T02:04:16.119Z,1001.60
2019-01-08T02:05:16.104Z,1001.53
2019-01-08T02:06:16.095Z,1001.51
2019-01-08T02:07:16.087Z,1001.60
2019-01-08T02:08:16.089Z,1001.50
2019-01-08T02:09:16.065Z,1001.48
2019-01-08T02:10:16.057Z,1001.53
2019-01-08T02:11:16.045Z,1001.53
2019-01-08T02:12:16.029Z,1001.48
2019-01-08T02:13:16.033Z,1001.53
2019-01-08T02:14:16.023Z,1001.50
2019-01-08T02:15:15.999Z,1001.46
2019-01-08T02:16:15.990Z,1001.44
2019-01-08T02:17:15.979Z,1001.37
2019-01-08T02:18:15.969Z,1001.44
2019-01-08T02:19:15.990Z,1001.43
2019-01-08T02:20:15.943Z,1001.48
2019-01-08T02:21:15.936Z,1001.47
2019-01-08T02:22:15.926Z,1001.52
2019-01-08T02:23:15.915Z,1001.44
2019-01-08T02:24:15.904Z,1001.37
2019-01-08T02:25:15.908Z,1001.42
2019-01-08T02:26:15.880Z,1001.36
2019-01-08T02:27:15.905Z,1001.32
2019-01-08T02:28:15.860Z,1001.33
2019-01-08T02:29:16.625Z,1001.34
2019-01-08T02:30:15.840Z,1001.29
2019-01-08T02:31:15.827Z,1001.27
2019-01-08T02:32:15.817Z,1001.35
2019-01-08T02:33:15.844Z,1001.24
2019-01-08T02:34:15.794Z,1001.23
2019-01-08T02:35:15.785Z,1001.23
2019-01-08T02:36:15.782Z,1001.17
2019-01-08T02:37:15.762Z,1001.19
2019-01-08T02:38:15.830Z,1001.19
2019-01-08T02:39:15.755Z,1001.19
2019-01-08T02:40:15.730Z,1001.16
2019-01-08T02:41:15.861Z,1001.17
2019-01-08T02:42:15.724Z,1001.10
2019-01-08T02:43:15.700Z,1001.12
2019-01-08T02:44:15.721Z,1001.08
2019-01-08T02:45:21.400Z,1001.15
2019-01-08T02:46:15.706Z,1001.06
2019-01-08T02:47:15.677Z,1001.07
2019-01-08T02:48:15.646Z,1001.07
2019-01-08T02:49:15.645Z,1001.02
2019-01-08T02:50:15.623Z,1001.08
2019-01-08T02:51:15.613Z,1001.07
2019-01-08T02:52:15.601Z,1000.96
2019-01-08T02:53:15.626Z,1001.00
2019-01-08T02:54:15.591Z,1001.00
2019-01-08T02:55:15.569Z,1000.93
2019-01-08T02:56:15.560Z,1000.85
2019-01-08T02:57:15.545Z,1000.76
2019-01-08T02:58:15.536Z,1000.88
2019-01-08T02:59:15.538Z,1000.77
2019-01-08T03:00:15.514Z,1000.76
2019-01-08T03:01:15.531Z,1000.75
2019-01-08T03:02:15.518Z,1000.79
2019-01-08T03:03:15.481Z,1000.78
2019-01-08T03:04:15.471Z,1000.79
2019-01-08T03:05:15.460Z,1000.74
2019-01-08T03:06:15.449Z,1000.73
2019-01-08T03:07:15.439Z,1000.67
2019-01-08T03:08:15.522Z,1000.74
2019-01-08T03:09:15.420Z,1000.75
2019-01-08T03:10:15.409Z,1000.63
2019-01-08T03:11:15.438Z,1000.77
2019-01-08T03:12:15.386Z,1000.64
2019-01-08T03:13:15.375Z,1000.60
2019-01-08T03:14:15.365Z,1000.68
2019-01-08T03:15:15.353Z,1000.60
2019-01-08T03:16:15.344Z,1000.53
2019-01-08T03:17:15.348Z,1000.57
2019-01-08T03:18:15.319Z,1000.37
2019-01-08T03:19:15.309Z,1000.49
2019-01-08T03:20:15.299Z,1000.40
2019-01-08T03:21:15.290Z,1000.36
2019-01-08T03:22:15.294Z,1000.37
2019-01-08T03:23:15.268Z,1000.30
2019-01-08T03:24:15.256Z,1000.27
2019-01-08T03:25:15.246Z,1000.30
2019-01-08T03:26:15.236Z,1000.26
2019-01-08T03:27:15.264Z,1000.26
2019-01-08T03:28:15.214Z,1000.29
2019-01-08T03:29:15.203Z,1000.23
2019-01-08T03:30:15.198Z,1000.27
2019-01-08T03:31:15.181Z,1000.19
2019-01-08T03:32:15.170Z,1000.18
2019-01-08T03:33:15.196Z,1000.20
2019-01-08T03:34:15.149Z,1000.06
2019-01-08T03:35:15.159Z,1000.16
2019-01-08T03:36:15.128Z,1000.14
2019-01-08T03:37:15.117Z,1000.12
2019-01-08T03:38:15.105Z,1000.15
2019-01-08T03:39:15.111Z,1000.08
2019-01-08T03:40:15.087Z,1000.05
2019-01-08T03:41:15.077Z,1000.05
2019-01-08T03:42:15.062Z,1000.01
2019-01-08T03:43:15.053Z,999.96
2019-01-08T03:44:15.058Z,999.98
2019-01-08T03:45:15.032Z,999.85
2019-01-08T03:46:15.022Z,999.76
2019-01-08T03:47:15.008Z,999.82
2019-01-08T03:48:15.000Z,999.87
2019-01-08T03:49:15.030Z,999.89
2019-01-08T03:50:14.976Z,999.80
2019-01-08T03:51:14.964Z,999.89
2019-01-08T03:52:14.956Z,999.75
2019-01-08T03:53:14.945Z,999.81
2019-01-08T03:54:14.933Z,999.69
2019-01-08T03:55:14.934Z,999.55
2019-01-08T03:56:14.928Z,999.54
2019-01-08T03:57:14.899Z,999.62
2019-01-08T03:58:14.893Z,999.55
2019-01-08T03:59:14.882Z,999.50
2019-01-08T04:00:14.885Z,999.70
2019-01-08T04:01:14.857Z,999.64
2019-01-08T04:02:14.847Z,999.50
2019-01-08T04:03:14.838Z,999.46
2019-01-08T04:04:14.834Z,999.46
2019-01-08T04:05:14.841Z,999.54
2019-01-08T04:06:14.808Z,999.42
2019-01-08T04:07:14.793Z,999.48
2019-01-08T04:08:14.783Z,999.40
2019-01-08T04:09:14.775Z,999.61
2019-01-08T04:10:14.764Z,999.33
2019-01-08T04:11:14.784Z,999.33
2019-01-08T04:12:14.742Z,999.34
2019-01-08T04:13:14.732Z,999.43
2019-01-08T04:14:14.719Z,999.41
2019-01-08T04:15:14.708Z,999.20
2019-01-08T04:16:14.700Z,999.34
2019-01-08T04:17:14.703Z,999.23
2019-01-08T04:18:14.678Z,999.19
2019-01-08T04:19:14.681Z,999.19
2019-01-08T04:20:14.695Z,999.18
2019-01-08T04:21:14.646Z,999.12
2019-01-08T04:22:14.633Z,999.19
2019-01-08T04:23:14.625Z,999.19
2019-01-08T04:24:14.612Z,999.40
2019-01-08T04:25:14.601Z,999.30
2019-01-08T04:26:14.627Z,999.36
2019-01-08T04:27:14.580Z,999.39
2019-01-08T04:28:14.568Z,999.48
2019-01-08T04:29:14.561Z,999.33
2019-01-08T04:30:14.551Z,999.65
2019-01-08T04:31:14.540Z,999.81
2019-01-08T04:32:14.540Z,999.50
2019-01-08T04:33:14.518Z,999.60
2019-01-08T04:34:14.506Z,999.63
2019-01-08T04:35:14.495Z,999.73
2019-01-08T04:36:14.483Z,999.50
2019-01-08T04:37:14.486Z,999.41
2019-01-08T04:38:14.461Z,999.41
2019-01-08T04:39:14.451Z,999.21
2019-01-08T04:40:14.443Z,999.19
2019-01-08T04:41:14.462Z,999.26
2019-01-08T04:42:14.423Z,999.07
2019-01-08T04:43:14.425Z,999.00
2019-01-08T04:44:14.398Z,999.16
2019-01-08T04:45:14.809Z,999.07
2019-01-08T04:46:14.378Z,998.92
2019-01-08T04:47:14.368Z,998.87
2019-01-08T04:48:14.395Z,998.89
2019-01-08T04:49:14.348Z,998.90
2019-01-08T04:50:14.335Z,998.92
2019-01-08T04:51:14.326Z,998.85
2019-01-08T04:52:14.312Z,998.87
2019-01-08T04:53:14.305Z,998.80
2019-01-08T04:54:14.326Z,998.73
2019-01-08T04:55:14.280Z,998.77
2019-01-08T04:56:14.270Z,998.62
2019-01-08T04:57:14.261Z,998.65
2019-01-08T04:58:14.251Z,998.61
2019-01-08T04:59:14.242Z,998.62
2019-01-08T05:00:14.244Z,998.52
2019-01-08T05:01:14.218Z,998.50
2019-01-08T05:02:14.211Z,998.43
2019-01-08T05:03:14.197Z,998.47
2019-01-08T05:04:14.217Z,998.47
2019-01-08T05:05:14.173Z,998.43
2019-01-08T05:06:14.165Z,998.35
2019-01-08T05:07:14.154Z,998.44
2019-01-08T05:08:14.141Z,998.42
2019-01-08T05:09:14.133Z,998.40
2019-01-08T05:10:14.133Z,998.38
2019-01-08T05:11:14.111Z,998.40
2019-01-08T05:12:14.097Z,998.35
2019-01-08T05:13:14.088Z,998.39
2019-01-08T05:14:14.079Z,998.26
2019-01-08T05:15:14.081Z,998.27
2019-01-08T05:16:14.136Z,998.29
2019-01-08T05:17:14.046Z,998.24
2019-01-08T05:18:14.037Z,998.19
2019-01-08T05:19:14.026Z,998.24
2019-01-08T05:20:14.012Z,998.19
2019-01-08T05:21:14.017Z,998.04
2019-01-08T05:22:13.990Z,998.07
2019-01-08T05:23:13.982Z,998.07
2019-01-08T05:24:13.984Z,998.05
2019-01-08T05:25:13.960Z,998.15
2019-01-08T05:26:13.974Z,998.01
2019-01-08T05:27:13.941Z,998.01
2019-01-08T05:28:13.928Z,998.03
2019-01-08T05:29:13.917Z,998.03
2019-01-08T05:30:13.909Z,998.05
2019-01-08T05:31:13.896Z,998.02
2019-01-08T05:32:13.901Z,998.02
2019-01-08T05:33:13.877Z,997.94
2019-01-08T05:34:13.864Z,997.94
2019-01-08T05:35:13.864Z,997.90
2019-01-08T05:36:13.844Z,997.90
2019-01-08T05:37:13.835Z,998.01
2019-01-08T05:38:13.824Z,997.91
2019-01-08T05:39:13.813Z,998.01
2019-01-08T05:40:13.814Z,998.02
2019-01-08T05:41:13.791Z,997.93
2019-01-08T05:42:13.793Z,997.96
2019-01-08T05:43:13.771Z,997.95
2019-01-08T05:44:13.758Z,997.90
2019-01-08T05:45:13.747Z,997.81
2019-01-08T05:46:13.734Z,997.79
2019-01-08T05:47:13.748Z,997.84
2019-01-08T05:48:13.715Z,997.70
2019-01-08T05:49:13.718Z,997.80
2019-01-08T05:50:13.750Z,997.83
2019-01-08T05:51:13.685Z,997.70
2019-01-08T05:52:13.673Z,997.63
2019-01-08T05:53:13.674Z,997.64
2019-01-08T05:54:13.651Z,997.57
2019-01-08T05:55:13.638Z,997.71
2019-01-08T05:56:13.634Z,997.66
2019-01-08T05:57:13.616Z,997.65
2019-01-08T05:58:13.621Z,997.64
2019-01-08T05:59:13.597Z,997.72
2019-01-08T06:00:16.582Z,997.60
2019-01-08T06:01:13.573Z,997.61
2019-01-08T06:02:13.563Z,997.61
2019-01-08T06:03:13.571Z,997.51
2019-01-08T06:04:13.541Z,997.63
2019-01-08T06:05:13.531Z,997.59
2019-01-08T06:06:13.520Z,997.54
2019-01-08T06:07:13.510Z,997.46
2019-01-08T06:08:13.501Z,997.56
2019-01-08T06:09:13.502Z,997.51
2019-01-08T06:10:13.478Z,997.55
2019-01-08T06:11:13.469Z,997.55
2019-01-08T06:12:13.459Z,997.59
2019-01-08T06:13:13.481Z,997.55
2019-01-08T06:14:13.438Z,997.60
2019-01-08T06:15:13.426Z,997.49
2019-01-08T06:16:13.417Z,997.62
2019-01-08T06:17:13.408Z,997.47
2019-01-08T06:18:13.396Z,997.52
2019-01-08T06:19:13.405Z,997.59
2019-01-08T06:20:13.372Z,997.45
2019-01-08T06:21:13.361Z,997.47
2019-01-08T06:22:13.354Z,997.46
2019-01-08T06:23:13.342Z,997.42
2019-01-08T06:24:13.329Z,997.49
2019-01-08T06:25:13.338Z,997.42
2019-01-08T06:26:13.309Z,997.42
2019-01-08T06:27:13.302Z,997.54
2019-01-08T06:28:13.287Z,997.49
2019-01-08T06:29:13.276Z,997.48
2019-01-08T06:30:13.282Z,997.49
2019-01-08T06:31:13.255Z,997.42
2019-01-08T06:32:13.246Z,997.49
2019-01-08T06:33:13.236Z,997.43
2019-01-08T06:34:13.223Z,997.45
2019-01-08T06:35:13.220Z,997.42
2019-01-08T06:36:13.213Z,997.46
2019-01-08T06:37:13.193Z,997.47
2019-01-08T06:38:13.192Z,997.38
2019-01-08T06:39:13.172Z,997.40
2019-01-08T06:40:13.162Z,997.44
2019-01-08T06:41:13.180Z,997.38
2019-01-08T06:42:13.141Z,997.31
2019-01-08T06:43:13.131Z,997.30
2019-01-08T06:44:13.120Z,997.38
2019-01-08T06:45:13.104Z,997.36
2019-01-08T06:46:13.095Z,997.39
2019-01-08T06:47:13.099Z,997.37
2019-01-08T06:48:13.122Z,997.27
2019-01-08T06:49:13.064Z,997.32
2019-01-08T06:50:13.056Z,997.29
2019-01-08T06:51:13.046Z,997.29
2019-01-08T06:52:13.045Z,997.32
2019-01-08T06:53:13.023Z,997.24
2019-01-08T06:54:13.021Z,997.34
2019-01-08T06:55:13.014Z,997.45
2019-01-08T06:56:14.664Z,997.36
2019-01-08T06:57:13.033Z,997.24
2019-01-08T06:58:12.971Z,997.34
2019-01-08T06:59:12.959Z,997.23
2019-01-08T07:00:12.949Z,997.21
2019-01-08T07:01:12.935Z,997.22
2019-01-08T07:02:12.927Z,996.97
2019-01-08T07:03:12.941Z,997.22
2019-01-08T07:04:12.907Z,997.25
2019-01-08T07:05:12.898Z,997.23
2019-01-08T07:06:12.904Z,997.23
2019-01-08T07:07:12.874Z,997.04
2019-01-08T07:08:12.864Z,997.10
2019-01-08T07:09:12.873Z,997.24
2019-01-08T07:10:12.842Z,997.05
2019-01-08T07:11:12.861Z,997.18
2019-01-08T07:12:12.818Z,997.28
2019-01-08T07:13:12.808Z,997.15
2019-01-08T07:14:12.800Z,997.17
2019-01-08T07:15:12.786Z,997.09
2019-01-08T07:16:12.787Z,997.06
2019-01-08T07:17:12.793Z,997.08
2019-01-08T07:18:12.764Z,997.05
2019-01-08T07:19:12.757Z,997.12
2019-01-08T07:20:12.746Z,997.03
2019-01-08T07:21:12.740Z,996.96
2019-01-08T07:22:12.746Z,996.98
2019-01-08T07:23:12.705Z,996.96
2019-01-08T07:24:12.690Z,997.04
2019-01-08T07:25:12.684Z,997.05
2019-01-08T07:26:12.671Z,997.05
2019-01-08T07:27:16.571Z,997.00
2019-01-08T07:28:12.664Z,996.98
2019-01-08T07:29:12.637Z,997.03
2019-01-08T07:30:12.629Z,997.00
2019-01-08T07:31:12.615Z,996.87
2019-01-08T07:32:12.607Z,996.96
2019-01-08T07:33:12.611Z,996.98
2019-01-08T07:34:12.584Z,997.04
2019-01-08T07:35:12.574Z,997.00
2019-01-08T07:36:12.558Z,996.93
2019-01-08T07:37:12.554Z,996.96
2019-01-08T07:38:12.559Z,996.97
2019-01-08T07:39:12.529Z,996.91
2019-01-08T07:40:12.521Z,996.92
2019-01-08T07:41:12.525Z,996.80
2019-01-08T07:42:12.499Z,996.78
2019-01-08T07:43:12.487Z,996.81
2019-01-08T07:44:12.512Z,996.75
2019-01-08T07:45:12.514Z,996.81
2019-01-08T07:46:12.456Z,996.81
2019-01-08T07:47:12.444Z,996.78
2019-01-08T07:48:12.435Z,996.69
2019-01-08T07:49:12.424Z,996.74
2019-01-08T07:50:12.433Z,996.73
2019-01-08T07:51:12.401Z,996.74
2019-01-08T07:52:12.389Z,996.68
2019-01-08T07:53:12.379Z,996.68
2019-01-08T07:54:12.366Z,996.57
2019-01-08T07:55:12.366Z,996.64
2019-01-08T07:56:12.379Z,996.62
2019-01-08T07:57:12.335Z,996.57
2019-01-08T07:58:12.326Z,996.58
2019-01-08T07:59:12.318Z,996.54
2019-01-08T08:00:12.304Z,996.50
2019-01-08T08:01:12.290Z,996.43
2019-01-08T08:02:12.297Z,996.43
2019-01-08T08:03:12.272Z,996.33
2019-01-08T08:04:12.261Z,996.41
2019-01-08T08:05:12.259Z,996.44
2019-01-08T08:06:12.252Z,996.45
2019-01-08T08:07:12.260Z,996.35
2019-01-08T08:08:12.217Z,996.42
2019-01-08T08:09:12.206Z,996.39
2019-01-08T08:10:12.194Z,996.57
2019-01-08T08:11:12.182Z,996.43
2019-01-08T08:12:12.173Z,996.36
2019-01-08T08:13:12.188Z,996.36
2019-01-08T08:14:12.152Z,996.39
2019-01-08T08:15:12.142Z,996.32
2019-01-08T08:16:12.128Z,996.39
2019-01-08T08:17:12.119Z,996.34
2019-01-08T08:18:12.109Z,996.20
2019-01-08T08:19:12.109Z,996.31
2019-01-08T08:20:12.099Z,996.33
2019-01-08T08:21:12.077Z,996.21
2019-01-08T08:22:12.091Z,996.36
2019-01-08T08:23:12.054Z,996.35
2019-01-08T08:24:12.044Z,996.36
2019-01-08T08:25:12.035Z,996.24
2019-01-08T08:26:12.022Z,996.31
2019-01-08T08:27:12.010Z,996.20
2019-01-08T08:28:12.020Z,996.31
2019-01-08T08:29:11.988Z,996.29
2019-01-08T08:30:11.978Z,996.27
2019-01-08T08:31:11.967Z,996.32
2019-01-08T08:32:11.956Z,996.18
2019-01-08T08:33:11.949Z,996.23
2019-01-08T08:34:11.947Z,996.12
2019-01-08T08:35:11.921Z,996.13
2019-01-08T08:36:11.913Z,996.17
2019-01-08T08:37:12.044Z,996.08
2019-01-08T08:38:11.892Z,996.18
2019-01-08T08:39:11.902Z,996.15
2019-01-08T08:40:11.872Z,996.12
2019-01-08T08:41:11.861Z,996.19
2019-01-08T08:42:11.846Z,996.17
2019-01-08T08:43:11.836Z,996.14
2019-01-08T08:44:11.838Z,996.19
2019-01-08T08:45:11.814Z,996.13
2019-01-08T08:46:11.803Z,996.16
2019-01-08T08:47:11.794Z,996.08
2019-01-08T08:48:11.781Z,996.14
2019-01-08T08:49:11.792Z,996.10
2019-01-08T08:50:11.762Z,996.04
2019-01-08T08:51:11.751Z,996.04
2019-01-08T08:52:11.738Z,996.16
2019-01-08T08:53:11.729Z,996.13
2019-01-08T08:54:11.720Z,996.13
2019-01-08T08:55:11.719Z,996.11
2019-01-08T08:56:11.696Z,995.99
2019-01-08T08:57:11.686Z,996.02
2019-01-08T08:58:11.674Z,996.03
2019-01-08T08:59:11.690Z,996.06
2019-01-08T09:00:11.652Z,995.95
2019-01-08T09:01:11.641Z,996.03
2019-01-08T09:02:11.634Z,995.93
2019-01-08T09:03:11.623Z,995.94
2019-01-08T09:04:11.610Z,995.98
2019-01-08T09:05:11.639Z,995.98
2019-01-08T09:06:11.588Z,995.91
2019-01-08T09:07:11.578Z,995.97
2019-01-08T09:08:11.569Z,996.01
2019-01-08T09:09:11.559Z,995.95
2019-01-08T09:10:11.552Z,995.97
2019-01-08T09:11:11.549Z,995.94
2019-01-08T09:12:11.527Z,995.84
2019-01-08T09:13:11.516Z,995.95
2019-01-08T09:14:11.506Z,995.94
2019-01-08T09:15:11.492Z,996.11
2019-01-08T09:16:11.503Z,995.90
2019-01-08T09:17:11.474Z,995.94
2019-01-08T09:18:11.463Z,995.96
2019-01-08T09:19:11.466Z,995.96
2019-01-08T09:20:11.443Z,995.98
2019-01-08T09:21:11.431Z,995.83
2019-01-08T09:22:11.419Z,995.83
2019-01-08T09:23:11.425Z,995.89
2019-01-08T09:24:11.399Z,995.83
2019-01-08T09:25:11.400Z,996.00
2019-01-08T09:26:11.378Z,995.90
2019-01-08T09:27:11.382Z,995.94
2019-01-08T09:28:11.389Z,995.75
2019-01-08T09:29:11.343Z,995.82
2019-01-08T09:30:11.335Z,995.83
2019-01-08T09:31:15.516Z,995.81
2019-01-08T09:32:11.319Z,995.96
2019-01-08T09:33:11.302Z,995.89
2019-01-08T09:34:11.303Z,995.94
2019-01-08T09:35:11.277Z,995.98
2019-01-08T09:36:11.273Z,996.07
2019-01-08T09:37:11.261Z,996.10
2019-01-08T09:38:11.249Z,996.10
2019-01-08T09:39:11.263Z,996.10
2019-01-08T09:40:11.225Z,996.04
2019-01-08T09:41:11.217Z,996.02
2019-01-08T09:42:11.207Z,996.00
2019-01-08T09:43:11.194Z,996.16
2019-01-08T09:44:11.183Z,996.01
2019-01-08T09:45:11.190Z,996.03
2019-01-08T09:46:11.162Z,995.95
2019-01-08T09:47:11.154Z,995.98
2019-01-08T09:48:11.144Z,995.88
2019-01-08T09:49:11.130Z,995.95
2019-01-08T09:50:11.134Z,996.00
2019-01-08T09:51:11.110Z,995.98
2019-01-08T09:52:11.109Z,995.96
2019-01-08T09:53:11.090Z,995.95
2019-01-08T09:54:11.080Z,996.05
2019-01-08T09:55:11.076Z,996.06
2019-01-08T09:56:11.056Z,996.04
2019-01-08T09:57:11.060Z,996.05
2019-01-08T09:58:11.034Z,996.04
2019-01-08T09:59:11.026Z,996.05
2019-01-08T10:00:11.017Z,995.97
2019-01-08T10:01:11.026Z,995.97
2019-01-08T10:02:10.990Z,996.07
2019-01-08T10:03:10.985Z,996.19
2019-01-08T10:04:10.994Z,995.85
2019-01-08T10:05:10.961Z,995.86
2019-01-08T10:06:10.964Z,995.83
2019-01-08T10:07:10.941Z,995.84
2019-01-08T10:08:10.930Z,995.82
2019-01-08T10:09:10.920Z,995.77
2019-01-08T10:10:10.910Z,995.78
2019-01-08T10:11:10.910Z,995.88
2019-01-08T10:12:10.901Z,995.76
2019-01-08T10:13:10.886Z,995.73
2019-01-08T10:14:10.864Z,995.71
2019-01-08T10:15:10.855Z,995.76
2019-01-08T10:16:10.877Z,995.80
2019-01-08T10:17:10.835Z,995.80
2019-01-08T10:18:10.824Z,995.76
2019-01-08T10:19:10.813Z,995.77
2019-01-08T10:20:10.800Z,995.86
2019-01-08T10:21:10.794Z,995.79
2019-01-08T10:22:10.811Z,995.86
2019-01-08T10:23:10.771Z,995.81
2019-01-08T10:24:10.757Z,995.79
2019-01-08T10:25:10.747Z,995.85
2019-01-08T10:26:10.752Z,995.74
2019-01-08T10:27:10.725Z,995.80
2019-01-08T10:28:10.715Z,995.78
2019-01-08T10:29:10.721Z,995.76
2019-01-08T10:30:10.696Z,995.72
2019-01-08T10:31:10.688Z,995.75
2019-01-08T10:32:10.674Z,995.76
2019-01-08T10:33:10.661Z,995.67
2019-01-08T10:34:10.665Z,995.69
2019-01-08T10:35:10.642Z,995.54
2019-01-08T10:36:10.629Z,995.66
2019-01-08T10:37:10.622Z,995.72
2019-01-08T10:38:10.606Z,995.58
2019-01-08T10:39:10.613Z,995.69
2019-01-08T10:40:10.600Z,995.67
2019-01-08T10:41:10.574Z,995.64
2019-01-08T10:42:10.566Z,995.63
2019-01-08T10:43:10.556Z,995.72
2019-01-08T10:44:10.545Z,995.67
2019-01-08T10:45:10.547Z,995.55
2019-01-08T10:46:10.528Z,995.54
2019-01-08T10:47:10.510Z,995.55
2019-01-08T10:48:10.502Z,995.55
2019-01-08T10:49:10.493Z,995.58
2019-01-08T10:50:10.494Z,995.50
2019-01-08T10:51:10.470Z,995.47
2019-01-08T10:52:10.459Z,995.54
2019-01-08T10:53:10.448Z,995.48
2019-01-08T10:54:10.462Z,995.49
2019-01-08T10:55:10.423Z,995.63
2019-01-08T10:56:10.416Z,995.54
2019-01-08T10:57:10.403Z,995.51
2019-01-08T10:58:10.394Z,995.60
2019-01-08T10:59:10.381Z,995.57
2019-01-08T11:00:10.389Z,995.47
2019-01-08T11:01:10.362Z,995.44
2019-01-08T11:02:10.351Z,995.49
2019-01-08T11:03:10.341Z,995.47
2019-01-08T11:04:10.329Z,995.49
2019-01-08T11:05:10.337Z,995.45
2019-01-08T11:06:10.308Z,995.52
2019-01-08T11:07:10.296Z,995.47
2019-01-08T11:08:10.283Z,995.60
2019-01-08T11:09:10.275Z,995.36
2019-01-08T11:10:10.266Z,995.57
2019-01-08T11:11:10.278Z,995.50
2019-01-08T11:12:10.240Z,995.36
2019-01-08T11:13:10.229Z,995.41
2019-01-08T11:14:10.221Z,995.44
2019-01-08T11:15:10.210Z,995.44
2019-01-08T11:16:10.199Z,995.40
2019-01-08T11:17:10.214Z,995.48
2019-01-08T11:18:10.176Z,995.40
2019-01-08T11:19:10.169Z,995.40
2019-01-08T11:20:10.156Z,995.37
2019-01-08T11:21:10.147Z,995.54
2019-01-08T11:22:10.133Z,995.48
2019-01-08T11:23:10.138Z,995.43
2019-01-08T11:24:10.111Z,995.39
2019-01-08T11:25:10.101Z,995.48
2019-01-08T11:26:10.092Z,995.46
2019-01-08T11:27:10.095Z,995.54
2019-01-08T11:28:10.069Z,995.94
2019-01-08T11:29:10.056Z,995.69
2019-01-08T11:30:10.045Z,995.79
2019-01-08T11:31:10.052Z,995.83
2019-01-08T11:32:10.026Z,995.72
2019-01-08T11:33:10.033Z,995.81
2019-01-08T11:34:10.002Z,995.92
2019-01-08T11:35:09.994Z,995.75
2019-01-08T11:36:09.982Z,995.72
2019-01-08T11:37:09.973Z,995.74
2019-01-08T11:38:09.986Z,995.73
2019-01-08T11:39:10.735Z,995.79
2019-01-08T11:40:09.938Z,995.76
2019-01-08T11:41:09.926Z,995.81
2019-01-08T11:42:09.917Z,995.82
2019-01-08T11:43:09.904Z,995.63
2019-01-08T11:44:09.907Z,995.82
2019-01-08T11:45:09.884Z,995.70
2019-01-08T11:46:09.872Z,995.74
2019-01-08T11:47:09.860Z,995.70
2019-01-08T11:48:09.850Z,995.76
2019-01-08T11:49:09.854Z,995.86
2019-01-08T11:50:09.828Z,995.78
2019-01-08T11:51:09.819Z,995.82
2019-01-08T11:52:09.806Z,995.74
2019-01-08T11:53:09.826Z,995.64
2019-01-08T11:54:09.786Z,995.69
2019-01-08T11:55:09.773Z,995.67
2019-01-08T11:56:09.764Z,995.68
2019-01-08T11:57:09.754Z,995.68
2019-01-08T11:58:09.742Z,995.72
2019-01-08T11:59:09.744Z,995.70
2019-01-08T12:00:09.722Z,995.76
2019-01-08T12:01:09.709Z,995.76
2019-01-08T12:02:09.705Z,995.65
2019-01-08T12:03:09.723Z,995.69
2019-01-08T12:04:09.676Z,995.72
2019-01-08T12:05:09.669Z,995.62
2019-01-08T12:06:09.653Z,995.51
2019-01-08T12:07:09.644Z,995.66
2019-01-08T12:08:09.631Z,995.61
2019-01-08T12:09:09.638Z,995.57
2019-01-08T12:10:09.609Z,995.71
2019-01-08T12:11:09.613Z,995.64
2019-01-08T12:12:09.591Z,995.64
2019-01-08T12:13:09.577Z,995.74
2019-01-08T12:14:09.582Z,995.58
2019-01-08T12:15:09.570Z,995.54
2019-01-08T12:16:09.579Z,995.61
2019-01-08T12:17:09.536Z,995.67
2019-01-08T12:18:09.524Z,995.69
2019-01-08T12:19:09.514Z,995.61
2019-01-08T12:20:09.500Z,995.61
2019-01-08T12:21:09.492Z,995.55